sensor_id;sensor_type;location;lat;lon;timestamp;P1;durP1;ratioP1;P2;durP2;ratioP2
22429;SDS011;11382;48.086;11.632;2022-10-19T00:00:59;8.63;;;5.68;;
22429;SDS011;11382;48.086;11.632;2022-10-19T00:03:28;9.40;;;6.25;;
22429;SDS011;11382;48.086;11.632;2022-10-19T00:05:56;9.20;;;6.25;;
22429;SDS011;11382;48.086;11.632;2022-10-19T00:08:25;10.77;;;5.95;;
22429;SDS011;11382;48.086;11.632;2022-10-19T00:10:53;14.35;;;6.75;;
22429;SDS011;11382;48.086;11.632;2022-10-19T00:13:21;8.65;;;6.05;;
22429;SDS011;11382;48.086;11.632;2022-10-19T00:15:49;8.40;;;6.47;;
22429;SDS011;11382;48.086;11.632;2022-10-19T00:18:17;11.00;;;6.82;;
22429;SDS011;11382;48.086;11.632;2022-10-19T00:20:45;11.27;;;6.30;;
22429;SDS011;11382;48.086;11.632;2022-10-19T00:23:13;9.50;;;6.28;;
22429;SDS011;11382;48.086;11.632;2022-10-19T00:25:52;8.55;;;6.65;;
22429;SDS011;11382;48.086;11.632;2022-10-19T00:28:21;10.32;;;6.78;;
22429;SDS011;11382;48.086;11.632;2022-10-19T00:30:50;12.73;;;6.97;;
22429;SDS011;11382;48.086;11.632;2022-10-19T00:33:19;10.93;;;7.40;;
22429;SDS011;11382;48.086;11.632;2022-10-19T00:35:48;13.57;;;7.32;;
22429;SDS011;11382;48.086;11.632;2022-10-19T00:38:16;9.30;;;6.55;;
22429;SDS011;11382;48.086;11.632;2022-10-19T00:40:46;12.38;;;7.28;;
22429;SDS011;11382;48.086;11.632;2022-10-19T00:43:15;17.83;;;8.27;;
22429;SDS011;11382;48.086;11.632;2022-10-19T00:45:45;10.52;;;7.47;;
22429;SDS011;11382;48.086;11.632;2022-10-19T00:48:14;8.45;;;6.80;;
22429;SDS011;11382;48.086;11.632;2022-10-19T00:50:47;15.63;;;7.15;;
22429;SDS011;11382;48.086;11.632;2022-10-19T00:53:17;9.32;;;6.55;;
22429;SDS011;11382;48.086;11.632;2022-10-19T00:55:47;11.27;;;6.32;;
22429;SDS011;11382;48.086;11.632;2022-10-19T00:58:15;10.85;;;7.03;;
22429;SDS011;11382;48.086;11.632;2022-10-19T01:00:43;7.80;;;6.90;;
22429;SDS011;11382;48.086;11.632;2022-10-19T01:03:12;9.18;;;7.00;;
22429;SDS011;11382;48.086;11.632;2022-10-19T01:05:40;10.40;;;6.78;;
22429;SDS011;11382;48.086;11.632;2022-10-19T01:08:09;9.23;;;6.50;;
22429;SDS011;11382;48.086;11.632;2022-10-19T01:10:40;9.07;;;6.68;;
22429;SDS011;11382;48.086;11.632;2022-10-19T01:13:16;9.35;;;6.75;;
22429;SDS011;11382;48.086;11.632;2022-10-19T01:15:54;16.45;;;7.47;;
22429;SDS011;11382;48.086;11.632;2022-10-19T01:18:29;8.93;;;7.05;;
22429;SDS011;11382;48.086;11.632;2022-10-19T01:24:17;8.20;;;6.72;;
22429;SDS011;11382;48.086;11.632;2022-10-19T01:27:19;9.20;;;6.38;;
22429;SDS011;11382;48.086;11.632;2022-10-19T01:30:08;11.23;;;6.78;;
22429;SDS011;11382;48.086;11.632;2022-10-19T01:32:54;10.45;;;7.07;;
22429;SDS011;11382;48.086;11.632;2022-10-19T01:35:33;11.32;;;6.78;;
22429;SDS011;11382;48.086;11.632;2022-10-19T01:38:08;9.52;;;6.57;;
22429;SDS011;11382;48.086;11.632;2022-10-19T01:40:44;10.88;;;5.82;;
22429;SDS011;11382;48.086;11.632;2022-10-19T01:43:24;10.15;;;6.57;;
22429;SDS011;11382;48.086;11.632;2022-10-19T01:46:02;10.82;;;7.05;;
22429;SDS011;11382;48.086;11.632;2022-10-19T01:48:35;7.07;;;6.38;;
22429;SDS011;11382;48.086;11.632;2022-10-19T01:51:08;8.82;;;6.55;;
22429;SDS011;11382;48.086;11.632;2022-10-19T01:53:45;9.23;;;6.15;;
22429;SDS011;11382;48.086;11.632;2022-10-19T01:56:17;10.57;;;6.47;;
22429;SDS011;11382;48.086;11.632;2022-10-19T01:58:50;10.95;;;6.10;;
22429;SDS011;11382;48.086;11.632;2022-10-19T02:01:22;11.55;;;6.25;;
22429;SDS011;11382;48.086;11.632;2022-10-19T02:03:54;11.67;;;6.63;;
22429;SDS011;11382;48.086;11.632;2022-10-19T02:06:23;10.05;;;6.45;;
22429;SDS011;11382;48.086;11.632;2022-10-19T02:08:52;10.07;;;6.32;;
22429;SDS011;11382;48.086;11.632;2022-10-19T02:11:21;10.00;;;6.25;;
22429;SDS011;11382;48.086;11.632;2022-10-19T02:13:50;9.75;;;5.88;;
22429;SDS011;11382;48.086;11.632;2022-10-19T02:16:25;8.43;;;6.03;;
22429;SDS011;11382;48.086;11.632;2022-10-19T02:18:56;7.80;;;5.68;;
22429;SDS011;11382;48.086;11.632;2022-10-19T02:21:26;11.68;;;6.28;;
22429;SDS011;11382;48.086;11.632;2022-10-19T02:23:55;10.43;;;6.25;;
22429;SDS011;11382;48.086;11.632;2022-10-19T02:26:23;7.57;;;6.22;;
22429;SDS011;11382;48.086;11.632;2022-10-19T02:28:52;8.98;;;6.10;;
22429;SDS011;11382;48.086;11.632;2022-10-19T02:31:20;13.73;;;6.95;;
22429;SDS011;11382;48.086;11.632;2022-10-19T02:33:51;9.63;;;6.13;;
22429;SDS011;11382;48.086;11.632;2022-10-19T02:36:20;8.70;;;6.15;;
22429;SDS011;11382;48.086;11.632;2022-10-19T02:38:49;12.45;;;6.50;;
22429;SDS011;11382;48.086;11.632;2022-10-19T02:41:17;9.65;;;6.45;;
22429;SDS011;11382;48.086;11.632;2022-10-19T02:44:04;12.02;;;6.47;;
22429;SDS011;11382;48.086;11.632;2022-10-19T02:46:41;12.13;;;6.80;;
22429;SDS011;11382;48.086;11.632;2022-10-19T02:49:12;13.07;;;7.25;;
22429;SDS011;11382;48.086;11.632;2022-10-19T02:51:54;10.98;;;7.13;;
22429;SDS011;11382;48.086;11.632;2022-10-19T02:54:24;12.00;;;6.53;;
22429;SDS011;11382;48.086;11.632;2022-10-19T02:56:53;10.18;;;6.88;;
22429;SDS011;11382;48.086;11.632;2022-10-19T02:59:21;10.52;;;7.45;;
22429;SDS011;11382;48.086;11.632;2022-10-19T03:01:49;11.65;;;7.85;;
22429;SDS011;11382;48.086;11.632;2022-10-19T03:04:19;8.60;;;7.10;;
22429;SDS011;11382;48.086;11.632;2022-10-19T03:06:46;10.77;;;7.53;;
22429;SDS011;11382;48.086;11.632;2022-10-19T03:09:14;10.30;;;8.27;;
22429;SDS011;11382;48.086;11.632;2022-10-19T03:11:42;12.32;;;8.43;;
22429;SDS011;11382;48.086;11.632;2022-10-19T03:14:10;11.75;;;8.25;;
22429;SDS011;11382;48.086;11.632;2022-10-19T03:16:41;14.82;;;8.07;;
22429;SDS011;11382;48.086;11.632;2022-10-19T03:19:09;12.02;;;8.57;;
22429;SDS011;11382;48.086;11.632;2022-10-19T03:21:38;14.43;;;9.00;;
22429;SDS011;11382;48.086;11.632;2022-10-19T03:24:06;11.43;;;9.18;;
22429;SDS011;11382;48.086;11.632;2022-10-19T03:26:34;16.70;;;9.25;;
22429;SDS011;11382;48.086;11.632;2022-10-19T03:29:02;15.95;;;9.20;;
22429;SDS011;11382;48.086;11.632;2022-10-19T03:31:31;13.95;;;8.90;;
22429;SDS011;11382;48.086;11.632;2022-10-19T03:33:59;17.10;;;10.23;;
22429;SDS011;11382;48.086;11.632;2022-10-19T03:36:27;17.17;;;9.38;;
22429;SDS011;11382;48.086;11.632;2022-10-19T03:38:59;16.58;;;10.35;;
22429;SDS011;11382;48.086;11.632;2022-10-19T03:41:31;17.35;;;10.20;;
22429;SDS011;11382;48.086;11.632;2022-10-19T03:44:00;18.00;;;11.57;;
22429;SDS011;11382;48.086;11.632;2022-10-19T03:46:28;13.65;;;9.73;;
22429;SDS011;11382;48.086;11.632;2022-10-19T03:48:57;13.15;;;8.98;;
22429;SDS011;11382;48.086;11.632;2022-10-19T03:51:25;12.10;;;8.52;;
22429;SDS011;11382;48.086;11.632;2022-10-19T03:53:56;17.83;;;9.32;;
22429;SDS011;11382;48.086;11.632;2022-10-19T03:56:27;12.90;;;8.40;;
22429;SDS011;11382;48.086;11.632;2022-10-19T03:58:57;13.75;;;8.95;;
22429;SDS011;11382;48.086;11.632;2022-10-19T04:01:26;17.65;;;9.07;;
22429;SDS011;11382;48.086;11.632;2022-10-19T04:03:56;13.32;;;8.00;;
22429;SDS011;11382;48.086;11.632;2022-10-19T04:06:27;13.30;;;7.95;;
22429;SDS011;11382;48.086;11.632;2022-10-19T04:08:56;12.80;;;7.60;;
22429;SDS011;11382;48.086;11.632;2022-10-19T04:11:27;15.80;;;8.40;;
22429;SDS011;11382;48.086;11.632;2022-10-19T04:13:57;11.88;;;8.15;;
22429;SDS011;11382;48.086;11.632;2022-10-19T04:16:26;14.02;;;6.85;;
22429;SDS011;11382;48.086;11.632;2022-10-19T04:18:55;10.52;;;7.55;;
22429;SDS011;11382;48.086;11.632;2022-10-19T04:21:24;10.18;;;6.80;;
22429;SDS011;11382;48.086;11.632;2022-10-19T04:23:56;11.30;;;6.45;;
22429;SDS011;11382;48.086;11.632;2022-10-19T04:26:26;12.40;;;6.95;;
22429;SDS011;11382;48.086;11.632;2022-10-19T04:28:55;10.20;;;6.53;;
22429;SDS011;11382;48.086;11.632;2022-10-19T04:31:24;11.25;;;6.55;;
22429;SDS011;11382;48.086;11.632;2022-10-19T04:33:52;8.80;;;6.07;;
22429;SDS011;11382;48.086;11.632;2022-10-19T04:36:20;9.98;;;6.47;;
22429;SDS011;11382;48.086;11.632;2022-10-19T04:38:49;12.55;;;5.88;;
22429;SDS011;11382;48.086;11.632;2022-10-19T04:41:18;11.23;;;6.93;;
22429;SDS011;11382;48.086;11.632;2022-10-19T04:43:53;10.60;;;6.38;;
22429;SDS011;11382;48.086;11.632;2022-10-19T04:46:22;10.30;;;7.00;;
22429;SDS011;11382;48.086;11.632;2022-10-19T04:48:51;12.65;;;6.95;;
22429;SDS011;11382;48.086;11.632;2022-10-19T04:51:20;12.07;;;7.25;;
22429;SDS011;11382;48.086;11.632;2022-10-19T04:53:48;12.75;;;8.40;;
22429;SDS011;11382;48.086;11.632;2022-10-19T04:56:19;13.65;;;9.07;;
22429;SDS011;11382;48.086;11.632;2022-10-19T04:58:50;13.82;;;9.30;;
22429;SDS011;11382;48.086;11.632;2022-10-19T05:01:21;16.42;;;9.65;;
22429;SDS011;11382;48.086;11.632;2022-10-19T05:03:52;13.02;;;8.93;;
22429;SDS011;11382;48.086;11.632;2022-10-19T05:06:25;17.00;;;9.35;;
22429;SDS011;11382;48.086;11.632;2022-10-19T05:08:54;14.38;;;9.88;;
22429;SDS011;11382;48.086;11.632;2022-10-19T05:11:22;17.15;;;9.52;;
22429;SDS011;11382;48.086;11.632;2022-10-19T05:13:52;18.67;;;9.82;;
22429;SDS011;11382;48.086;11.632;2022-10-19T05:16:21;22.40;;;10.85;;
22429;SDS011;11382;48.086;11.632;2022-10-19T05:18:50;16.70;;;9.98;;
22429;SDS011;11382;48.086;11.632;2022-10-19T05:21:21;18.23;;;10.43;;
22429;SDS011;11382;48.086;11.632;2022-10-19T05:23:50;24.65;;;11.43;;
22429;SDS011;11382;48.086;11.632;2022-10-19T05:26:20;22.42;;;11.52;;
22429;SDS011;11382;48.086;11.632;2022-10-19T05:28:50;21.30;;;11.23;;
22429;SDS011;11382;48.086;11.632;2022-10-19T05:31:23;21.70;;;10.95;;
22429;SDS011;11382;48.086;11.632;2022-10-19T05:33:52;20.88;;;12.18;;
22429;SDS011;11382;48.086;11.632;2022-10-19T05:36:22;23.63;;;11.52;;
22429;SDS011;11382;48.086;11.632;2022-10-19T05:38:52;16.58;;;10.82;;
22429;SDS011;11382;48.086;11.632;2022-10-19T05:41:22;22.60;;;10.60;;
22429;SDS011;11382;48.086;11.632;2022-10-19T05:43:53;21.25;;;12.10;;
22429;SDS011;11382;48.086;11.632;2022-10-19T05:46:22;18.40;;;11.25;;
22429;SDS011;11382;48.086;11.632;2022-10-19T05:48:51;23.63;;;11.35;;
22429;SDS011;11382;48.086;11.632;2022-10-19T05:51:19;24.38;;;12.02;;
22429;SDS011;11382;48.086;11.632;2022-10-19T05:53:51;28.63;;;13.13;;
22429;SDS011;11382;48.086;11.632;2022-10-19T05:56:20;21.35;;;11.93;;
22429;SDS011;11382;48.086;11.632;2022-10-19T05:58:50;29.58;;;14.15;;
22429;SDS011;11382;48.086;11.632;2022-10-19T06:01:19;26.23;;;12.95;;
22429;SDS011;11382;48.086;11.632;2022-10-19T06:03:49;24.17;;;12.55;;
22429;SDS011;11382;48.086;11.632;2022-10-19T06:06:18;28.38;;;14.85;;
22429;SDS011;11382;48.086;11.632;2022-10-19T06:08:46;30.98;;;15.93;;
22429;SDS011;11382;48.086;11.632;2022-10-19T06:11:16;35.63;;;16.88;;
22429;SDS011;11382;48.086;11.632;2022-10-19T06:13:45;41.58;;;19.13;;
22429;SDS011;11382;48.086;11.632;2022-10-19T06:16:16;33.60;;;16.50;;
22429;SDS011;11382;48.086;11.632;2022-10-19T06:18:49;35.97;;;18.83;;
22429;SDS011;11382;48.086;11.632;2022-10-19T06:21:19;43.10;;;19.27;;
22429;SDS011;11382;48.086;11.632;2022-10-19T06:23:49;32.78;;;18.00;;
22429;SDS011;11382;48.086;11.632;2022-10-19T06:26:18;36.22;;;19.00;;
22429;SDS011;11382;48.086;11.632;2022-10-19T06:28:47;34.40;;;17.58;;
22429;SDS011;11382;48.086;11.632;2022-10-19T06:31:15;41.20;;;18.92;;
22429;SDS011;11382;48.086;11.632;2022-10-19T06:33:44;35.65;;;18.02;;
22429;SDS011;11382;48.086;11.632;2022-10-19T06:36:16;37.80;;;18.63;;
22429;SDS011;11382;48.086;11.632;2022-10-19T06:38:46;41.15;;;19.27;;
22429;SDS011;11382;48.086;11.632;2022-10-19T06:41:15;36.20;;;18.52;;
22429;SDS011;11382;48.086;11.632;2022-10-19T06:43:47;36.35;;;19.55;;
22429;SDS011;11382;48.086;11.632;2022-10-19T06:46:16;39.47;;;19.52;;
22429;SDS011;11382;48.086;11.632;2022-10-19T06:48:49;31.50;;;18.40;;
22429;SDS011;11382;48.086;11.632;2022-10-19T06:51:19;15.05;;;10.80;;
22429;SDS011;11382;48.086;11.632;2022-10-19T06:53:48;14.93;;;9.80;;
22429;SDS011;11382;48.086;11.632;2022-10-19T06:56:21;17.48;;;12.63;;
22429;SDS011;11382;48.086;11.632;2022-10-19T06:58:50;24.27;;;14.15;;
22429;SDS011;11382;48.086;11.632;2022-10-19T07:01:18;30.63;;;16.63;;
22429;SDS011;11382;48.086;11.632;2022-10-19T07:03:46;27.88;;;15.93;;
22429;SDS011;11382;48.086;11.632;2022-10-19T07:06:16;30.33;;;17.20;;
22429;SDS011;11382;48.086;11.632;2022-10-19T07:08:46;29.58;;;17.63;;
22429;SDS011;11382;48.086;11.632;2022-10-19T07:11:14;27.27;;;16.92;;
22429;SDS011;11382;48.086;11.632;2022-10-19T07:13:44;30.25;;;16.65;;
22429;SDS011;11382;48.086;11.632;2022-10-19T07:16:13;28.52;;;17.38;;
22429;SDS011;11382;48.086;11.632;2022-10-19T07:18:47;29.35;;;18.13;;
22429;SDS011;11382;48.086;11.632;2022-10-19T07:21:16;34.45;;;21.10;;
22429;SDS011;11382;48.086;11.632;2022-10-19T07:23:46;30.35;;;19.77;;
22429;SDS011;11382;48.086;11.632;2022-10-19T07:26:15;36.10;;;22.92;;
22429;SDS011;11382;48.086;11.632;2022-10-19T07:28:46;40.17;;;24.23;;
22429;SDS011;11382;48.086;11.632;2022-10-19T07:31:17;40.53;;;24.50;;
22429;SDS011;11382;48.086;11.632;2022-10-19T07:33:46;37.92;;;24.05;;
22429;SDS011;11382;48.086;11.632;2022-10-19T07:36:19;38.10;;;24.00;;
22429;SDS011;11382;48.086;11.632;2022-10-19T07:38:49;36.70;;;24.38;;
22429;SDS011;11382;48.086;11.632;2022-10-19T07:41:18;40.58;;;26.33;;
22429;SDS011;11382;48.086;11.632;2022-10-19T07:43:48;40.60;;;25.23;;
22429;SDS011;11382;48.086;11.632;2022-10-19T07:46:17;45.08;;;26.60;;
22429;SDS011;11382;48.086;11.632;2022-10-19T07:48:47;36.53;;;24.38;;
22429;SDS011;11382;48.086;11.632;2022-10-19T07:51:16;37.47;;;24.70;;
22429;SDS011;11382;48.086;11.632;2022-10-19T07:53:45;34.47;;;24.30;;
22429;SDS011;11382;48.086;11.632;2022-10-19T07:56:15;35.92;;;24.30;;
22429;SDS011;11382;48.086;11.632;2022-10-19T07:58:45;41.17;;;24.58;;
22429;SDS011;11382;48.086;11.632;2022-10-19T08:01:14;37.40;;;23.42;;
22429;SDS011;11382;48.086;11.632;2022-10-19T08:03:44;37.72;;;22.67;;
22429;SDS011;11382;48.086;11.632;2022-10-19T08:06:32;35.38;;;23.67;;
22429;SDS011;11382;48.086;11.632;2022-10-19T08:09:01;36.47;;;23.77;;
22429;SDS011;11382;48.086;11.632;2022-10-19T08:11:32;32.63;;;22.67;;
22429;SDS011;11382;48.086;11.632;2022-10-19T08:14:02;34.80;;;23.73;;
22429;SDS011;11382;48.086;11.632;2022-10-19T08:16:31;34.60;;;23.95;;
22429;SDS011;11382;48.086;11.632;2022-10-19T08:19:04;35.95;;;23.05;;
22429;SDS011;11382;48.086;11.632;2022-10-19T08:21:35;45.15;;;25.67;;
22429;SDS011;11382;48.086;11.632;2022-10-19T08:24:05;36.78;;;23.27;;
22429;SDS011;11382;48.086;11.632;2022-10-19T08:26:35;35.80;;;24.45;;
22429;SDS011;11382;48.086;11.632;2022-10-19T08:29:06;36.20;;;22.33;;
22429;SDS011;11382;48.086;11.632;2022-10-19T08:31:35;34.00;;;23.13;;
22429;SDS011;11382;48.086;11.632;2022-10-19T08:34:03;34.72;;;22.30;;
22429;SDS011;11382;48.086;11.632;2022-10-19T08:36:32;34.28;;;23.23;;
22429;SDS011;11382;48.086;11.632;2022-10-19T08:39:01;33.60;;;21.85;;
22429;SDS011;11382;48.086;11.632;2022-10-19T08:41:31;33.03;;;20.70;;
22429;SDS011;11382;48.086;11.632;2022-10-19T08:44:18;32.55;;;21.10;;
22429;SDS011;11382;48.086;11.632;2022-10-19T08:46:59;29.02;;;20.30;;
22429;SDS011;11382;48.086;11.632;2022-10-19T08:49:33;28.33;;;18.42;;
22429;SDS011;11382;48.086;11.632;2022-10-19T08:52:03;29.88;;;18.63;;
22429;SDS011;11382;48.086;11.632;2022-10-19T08:54:35;28.52;;;18.58;;
22429;SDS011;11382;48.086;11.632;2022-10-19T08:57:10;28.15;;;19.88;;
22429;SDS011;11382;48.086;11.632;2022-10-19T08:59:49;30.17;;;20.13;;
22429;SDS011;11382;48.086;11.632;2022-10-19T09:02:27;30.17;;;19.08;;
22429;SDS011;11382;48.086;11.632;2022-10-19T09:05:04;29.98;;;20.23;;
22429;SDS011;11382;48.086;11.632;2022-10-19T09:07:41;30.65;;;19.33;;
22429;SDS011;11382;48.086;11.632;2022-10-19T09:10:15;27.85;;;18.45;;
22429;SDS011;11382;48.086;11.632;2022-10-19T09:12:49;29.58;;;19.65;;
22429;SDS011;11382;48.086;11.632;2022-10-19T09:15:26;27.15;;;19.15;;
22429;SDS011;11382;48.086;11.632;2022-10-19T09:18:01;25.95;;;18.75;;
22429;SDS011;11382;48.086;11.632;2022-10-19T09:20:30;30.80;;;20.05;;
22429;SDS011;11382;48.086;11.632;2022-10-19T09:23:06;30.08;;;20.23;;
22429;SDS011;11382;48.086;11.632;2022-10-19T09:25:42;29.45;;;18.60;;
22429;SDS011;11382;48.086;11.632;2022-10-19T09:28:13;32.80;;;19.05;;
22429;SDS011;11382;48.086;11.632;2022-10-19T09:31:05;30.20;;;19.23;;
22429;SDS011;11382;48.086;11.632;2022-10-19T09:33:37;36.78;;;20.65;;
22429;SDS011;11382;48.086;11.632;2022-10-19T09:36:07;29.10;;;20.73;;
22429;SDS011;11382;48.086;11.632;2022-10-19T09:38:52;28.83;;;19.35;;
22429;SDS011;11382;48.086;11.632;2022-10-19T09:41:21;29.92;;;19.20;;
22429;SDS011;11382;48.086;11.632;2022-10-19T09:43:50;27.90;;;17.73;;
22429;SDS011;11382;48.086;11.632;2022-10-19T09:46:26;26.13;;;18.23;;
22429;SDS011;11382;48.086;11.632;2022-10-19T09:49:04;29.38;;;18.58;;
22429;SDS011;11382;48.086;11.632;2022-10-19T09:51:39;26.23;;;17.70;;
22429;SDS011;11382;48.086;11.632;2022-10-19T09:54:22;28.17;;;17.98;;
22429;SDS011;11382;48.086;11.632;2022-10-19T09:56:52;26.83;;;17.85;;
22429;SDS011;11382;48.086;11.632;2022-10-19T09:59:22;24.17;;;16.10;;
22429;SDS011;11382;48.086;11.632;2022-10-19T10:02:12;22.42;;;15.63;;
22429;SDS011;11382;48.086;11.632;2022-10-19T10:04:44;20.83;;;15.07;;
22429;SDS011;11382;48.086;11.632;2022-10-19T10:07:14;25.70;;;15.95;;
22429;SDS011;11382;48.086;11.632;2022-10-19T10:09:44;20.80;;;14.43;;
22429;SDS011;11382;48.086;11.632;2022-10-19T10:12:13;23.63;;;16.10;;
22429;SDS011;11382;48.086;11.632;2022-10-19T10:14:42;21.40;;;15.65;;
22429;SDS011;11382;48.086;11.632;2022-10-19T10:17:13;21.42;;;14.90;;
22429;SDS011;11382;48.086;11.632;2022-10-19T10:19:49;20.23;;;14.18;;
22429;SDS011;11382;48.086;11.632;2022-10-19T10:22:31;19.98;;;14.55;;
22429;SDS011;11382;48.086;11.632;2022-10-19T10:25:01;22.48;;;15.65;;
22429;SDS011;11382;48.086;11.632;2022-10-19T10:27:43;24.23;;;15.35;;
22429;SDS011;11382;48.086;11.632;2022-10-19T10:30:22;25.30;;;15.05;;
22429;SDS011;11382;48.086;11.632;2022-10-19T10:32:52;23.42;;;15.60;;
22429;SDS011;11382;48.086;11.632;2022-10-19T10:35:24;23.25;;;14.60;;
22429;SDS011;11382;48.086;11.632;2022-10-19T10:38:03;23.27;;;14.75;;
22429;SDS011;11382;48.086;11.632;2022-10-19T10:40:33;22.40;;;14.55;;
22429;SDS011;11382;48.086;11.632;2022-10-19T10:43:05;21.08;;;14.18;;
22429;SDS011;11382;48.086;11.632;2022-10-19T10:45:36;19.77;;;14.48;;
22429;SDS011;11382;48.086;11.632;2022-10-19T10:48:16;20.58;;;13.68;;
22429;SDS011;11382;48.086;11.632;2022-10-19T10:50:53;20.05;;;13.85;;
22429;SDS011;11382;48.086;11.632;2022-10-19T10:53:30;19.45;;;13.50;;
22429;SDS011;11382;48.086;11.632;2022-10-19T10:55:59;22.58;;;14.00;;
22429;SDS011;11382;48.086;11.632;2022-10-19T10:58:33;22.77;;;14.77;;
22429;SDS011;11382;48.086;11.632;2022-10-19T11:01:06;20.70;;;14.07;;
22429;SDS011;11382;48.086;11.632;2022-10-19T11:03:46;21.08;;;14.35;;
22429;SDS011;11382;48.086;11.632;2022-10-19T11:06:19;19.45;;;13.60;;
22429;SDS011;11382;48.086;11.632;2022-10-19T11:08:51;20.63;;;14.40;;
22429;SDS011;11382;48.086;11.632;2022-10-19T11:11:26;21.80;;;13.70;;
22429;SDS011;11382;48.086;11.632;2022-10-19T11:13:59;19.45;;;13.80;;
22429;SDS011;11382;48.086;11.632;2022-10-19T11:16:37;24.05;;;14.05;;
22429;SDS011;11382;48.086;11.632;2022-10-19T11:19:11;20.13;;;13.88;;
22429;SDS011;11382;48.086;11.632;2022-10-19T11:21:46;21.90;;;14.18;;
22429;SDS011;11382;48.086;11.632;2022-10-19T11:24:24;19.73;;;13.63;;
22429;SDS011;11382;48.086;11.632;2022-10-19T11:27:07;20.48;;;14.18;;
22429;SDS011;11382;48.086;11.632;2022-10-19T11:29:48;22.60;;;14.65;;
22429;SDS011;11382;48.086;11.632;2022-10-19T11:32:26;22.05;;;14.68;;
22429;SDS011;11382;48.086;11.632;2022-10-19T11:35:15;21.92;;;14.52;;
22429;SDS011;11382;48.086;11.632;2022-10-19T11:37:56;19.08;;;13.93;;
22429;SDS011;11382;48.086;11.632;2022-10-19T11:40:57;19.70;;;13.48;;
22429;SDS011;11382;48.086;11.632;2022-10-19T11:43:52;23.90;;;13.43;;
22429;SDS011;11382;48.086;11.632;2022-10-19T11:46:33;21.40;;;13.38;;
22429;SDS011;11382;48.086;11.632;2022-10-19T11:49:09;18.25;;;12.63;;
22429;SDS011;11382;48.086;11.632;2022-10-19T11:51:57;19.17;;;12.07;;
22429;SDS011;11382;48.086;11.632;2022-10-19T11:54:31;16.27;;;11.43;;
22429;SDS011;11382;48.086;11.632;2022-10-19T11:57:08;13.75;;;10.07;;
22429;SDS011;11382;48.086;11.632;2022-10-19T11:59:57;12.18;;;9.13;;
22429;SDS011;11382;48.086;11.632;2022-10-19T12:02:59;10.93;;;8.32;;
22429;SDS011;11382;48.086;11.632;2022-10-19T12:05:51;12.80;;;9.00;;
22429;SDS011;11382;48.086;11.632;2022-10-19T12:08:31;10.77;;;8.40;;
22429;SDS011;11382;48.086;11.632;2022-10-19T12:11:12;12.38;;;9.45;;
22429;SDS011;11382;48.086;11.632;2022-10-19T12:13:54;15.10;;;8.93;;
22429;SDS011;11382;48.086;11.632;2022-10-19T12:16:27;13.32;;;10.77;;
22429;SDS011;11382;48.086;11.632;2022-10-19T12:19:02;13.93;;;10.93;;
22429;SDS011;11382;48.086;11.632;2022-10-19T12:21:33;15.82;;;11.73;;
22429;SDS011;11382;48.086;11.632;2022-10-19T12:24:11;15.82;;;10.90;;
22429;SDS011;11382;48.086;11.632;2022-10-19T12:26:42;13.02;;;10.32;;
22429;SDS011;11382;48.086;11.632;2022-10-19T12:29:13;14.45;;;10.48;;
22429;SDS011;11382;48.086;11.632;2022-10-19T12:31:43;12.73;;;9.93;;
22429;SDS011;11382;48.086;11.632;2022-10-19T12:34:17;14.30;;;11.13;;
22429;SDS011;11382;48.086;11.632;2022-10-19T12:36:53;13.80;;;9.80;;
22429;SDS011;11382;48.086;11.632;2022-10-19T12:39:28;13.20;;;9.80;;
22429;SDS011;11382;48.086;11.632;2022-10-19T12:42:02;13.07;;;8.88;;
22429;SDS011;11382;48.086;11.632;2022-10-19T12:44:49;13.07;;;9.80;;
22429;SDS011;11382;48.086;11.632;2022-10-19T12:47:34;11.25;;;8.98;;
22429;SDS011;11382;48.086;11.632;2022-10-19T12:50:03;16.13;;;10.38;;
22429;SDS011;11382;48.086;11.632;2022-10-19T12:52:38;13.43;;;10.20;;
22429;SDS011;11382;48.086;11.632;2022-10-19T12:55:23;13.43;;;9.45;;
22429;SDS011;11382;48.086;11.632;2022-10-19T12:57:56;12.43;;;9.45;;
22429;SDS011;11382;48.086;11.632;2022-10-19T13:00:27;16.05;;;9.60;;
22429;SDS011;11382;48.086;11.632;2022-10-19T13:02:58;13.32;;;10.05;;
22429;SDS011;11382;48.086;11.632;2022-10-19T13:05:30;12.20;;;9.48;;
22429;SDS011;11382;48.086;11.632;2022-10-19T13:08:01;14.10;;;9.63;;
22429;SDS011;11382;48.086;11.632;2022-10-19T13:10:37;11.07;;;8.18;;
22429;SDS011;11382;48.086;11.632;2022-10-19T13:13:05;12.95;;;8.38;;
22429;SDS011;11382;48.086;11.632;2022-10-19T13:15:53;10.18;;;7.38;;
22429;SDS011;11382;48.086;11.632;2022-10-19T13:25:13;9.25;;;7.05;;
22429;SDS011;11382;48.086;11.632;2022-10-19T13:27:50;9.10;;;6.72;;
22429;SDS011;11382;48.086;11.632;2022-10-19T13:33:41;6.68;;;4.55;;
22429;SDS011;11382;48.086;11.632;2022-10-19T13:36:18;4.78;;;3.97;;
22429;SDS011;11382;48.086;11.632;2022-10-19T13:38:59;6.32;;;3.92;;
22429;SDS011;11382;48.086;11.632;2022-10-19T13:41:51;6.15;;;4.03;;
22429;SDS011;11382;48.086;11.632;2022-10-19T13:44:27;6.82;;;3.97;;
22429;SDS011;11382;48.086;11.632;2022-10-19T13:47:16;5.90;;;3.80;;
22429;SDS011;11382;48.086;11.632;2022-10-19T13:50:14;5.97;;;4.10;;
22429;SDS011;11382;48.086;11.632;2022-10-19T13:52:59;6.57;;;3.72;;
22429;SDS011;11382;48.086;11.632;2022-10-19T13:55:43;5.55;;;3.70;;
22429;SDS011;11382;48.086;11.632;2022-10-19T13:58:52;6.45;;;4.25;;
22429;SDS011;11382;48.086;11.632;2022-10-19T14:02:07;5.40;;;3.90;;
22429;SDS011;11382;48.086;11.632;2022-10-19T14:05:02;7.13;;;3.80;;
22429;SDS011;11382;48.086;11.632;2022-10-19T14:07:44;5.47;;;3.72;;
22429;SDS011;11382;48.086;11.632;2022-10-19T14:10:23;4.75;;;3.33;;
22429;SDS011;11382;48.086;11.632;2022-10-19T14:13:04;5.53;;;3.72;;
22429;SDS011;11382;48.086;11.632;2022-10-19T14:15:33;6.80;;;4.07;;
22429;SDS011;11382;48.086;11.632;2022-10-19T14:18:18;6.97;;;3.85;;
22429;SDS011;11382;48.086;11.632;2022-10-19T14:20:54;6.50;;;3.88;;
22429;SDS011;11382;48.086;11.632;2022-10-19T14:23:24;5.32;;;3.33;;
22429;SDS011;11382;48.086;11.632;2022-10-19T14:25:54;7.10;;;3.50;;
22429;SDS011;11382;48.086;11.632;2022-10-19T14:28:25;6.20;;;3.95;;
22429;SDS011;11382;48.086;11.632;2022-10-19T14:30:54;6.43;;;4.05;;
22429;SDS011;11382;48.086;11.632;2022-10-19T14:33:26;7.25;;;3.85;;
22429;SDS011;11382;48.086;11.632;2022-10-19T14:35:58;5.45;;;3.95;;
22429;SDS011;11382;48.086;11.632;2022-10-19T14:38:28;6.03;;;3.95;;
22429;SDS011;11382;48.086;11.632;2022-10-19T14:41:02;6.03;;;3.78;;
22429;SDS011;11382;48.086;11.632;2022-10-19T14:43:31;8.25;;;4.22;;
22429;SDS011;11382;48.086;11.632;2022-10-19T14:46:08;5.70;;;4.38;;
22429;SDS011;11382;48.086;11.632;2022-10-19T14:48:40;7.00;;;4.40;;
22429;SDS011;11382;48.086;11.632;2022-10-19T14:51:20;8.68;;;4.43;;
22429;SDS011;11382;48.086;11.632;2022-10-19T14:53:56;10.15;;;3.97;;
22429;SDS011;11382;48.086;11.632;2022-10-19T14:56:28;7.07;;;4.20;;
22429;SDS011;11382;48.086;11.632;2022-10-19T14:59:02;6.97;;;4.05;;
22429;SDS011;11382;48.086;11.632;2022-10-19T15:01:33;6.25;;;4.18;;
22429;SDS011;11382;48.086;11.632;2022-10-19T15:04:03;7.05;;;4.43;;
22429;SDS011;11382;48.086;11.632;2022-10-19T15:06:32;7.13;;;4.50;;